createdAt,value
2018-02-21T00:01:34.314Z,31.17
2018-02-21T00:04:02.544Z,35.57
2018-02-21T00:06:30.030Z,34.57
2018-02-21T00:08:57.502Z,32.90
2018-02-21T00:11:25.745Z,32.77
2018-02-21T00:13:53.210Z,36.23
2018-02-21T00:16:20.692Z,34.33
2018-02-21T00:18:48.922Z,36.87
2018-02-21T00:21:16.408Z,37.30
2018-02-21T00:23:43.898Z,31.03
2018-02-21T00:26:11.382Z,39.40
2018-02-21T00:28:38.854Z,38.13
2018-02-21T00:31:06.349Z,36.90
2018-02-21T00:33:34.579Z,35.63
2018-02-21T00:36:02.101Z,36.37
2018-02-21T00:38:30.344Z,42.70
2018-02-21T00:40:57.816Z,37.60
2018-02-21T00:43:26.057Z,36.47
2018-02-21T00:45:53.538Z,40.80
2018-02-21T00:48:21.005Z,37.53
2018-02-21T00:50:49.258Z,37.87
2018-02-21T00:53:16.737Z,41.80
2018-02-21T00:55:44.209Z,38.47
2018-02-21T00:58:12.454Z,42.97
2018-02-21T01:00:39.945Z,46.50
2018-02-21T01:03:07.424Z,41.90
2018-02-21T01:05:34.917Z,45.60
2018-02-21T01:08:02.393Z,40.93
2018-02-21T01:10:29.878Z,42.30
2018-02-21T01:12:57.352Z,46.50
2018-02-21T01:15:24.836Z,42.80
2018-02-21T01:17:52.314Z,49.53
2018-02-21T01:20:19.813Z,41.90
2018-02-21T01:22:47.292Z,44.20
2018-02-21T01:25:14.777Z,41.57
2018-02-21T01:27:43.014Z,41.17
2018-02-21T01:30:10.503Z,46.13
2018-02-21T01:32:37.982Z,42.50
2018-02-21T01:35:05.448Z,44.87
2018-02-21T01:37:32.928Z,47.00
2018-02-21T01:40:01.156Z,43.43
2018-02-21T01:42:28.631Z,35.83
2018-02-21T01:44:56.116Z,41.90
2018-02-21T01:47:24.365Z,41.97
2018-02-21T01:49:51.844Z,43.53
2018-02-21T01:52:20.088Z,45.20
2018-02-21T01:54:48.321Z,42.50
2018-02-21T01:57:15.815Z,45.67
2018-02-21T01:59:43.272Z,45.60
2018-02-21T02:02:10.748Z,48.03
2018-02-21T02:04:38.228Z,47.43
2018-02-21T02:07:06.472Z,48.60
2018-02-21T02:09:33.948Z,44.93
2018-02-21T02:12:01.426Z,44.87
2018-02-21T02:14:29.660Z,47.57
2018-02-21T02:16:57.144Z,42.97
2018-02-21T02:19:24.609Z,41.80
2018-02-21T02:21:52.856Z,51.67
2018-02-21T02:24:20.319Z,51.47
2018-02-21T02:26:47.805Z,47.80
2018-02-21T02:29:16.023Z,44.10
2018-02-21T02:31:43.497Z,49.47
2018-02-21T02:34:10.951Z,46.97
2018-02-21T02:36:38.426Z,47.67
2018-02-21T02:39:17.545Z,46.20
2018-02-21T02:41:45.005Z,56.93
2018-02-21T02:44:12.456Z,48.87
2018-02-21T02:46:39.925Z,45.03
2018-02-21T02:49:07.385Z,47.97
2018-02-21T02:51:34.851Z,44.73
2018-02-21T02:54:02.318Z,43.93
2018-02-21T02:56:30.557Z,46.97
2018-02-21T02:58:58.784Z,49.17
2018-02-21T03:01:27.066Z,45.43
2018-02-21T03:03:54.482Z,47.20
2018-02-21T03:06:21.947Z,50.30
2018-02-21T03:08:49.407Z,51.63
2018-02-21T03:11:16.876Z,49.03
2018-02-21T03:13:44.343Z,52.90
2018-02-21T03:16:12.573Z,47.60
2018-02-21T03:18:40.048Z,45.93
2018-02-21T03:21:07.500Z,45.27
2018-02-21T03:23:34.967Z,55.47
2018-02-21T03:26:02.429Z,53.93
2018-02-21T03:28:29.899Z,52.97
2018-02-21T03:30:58.130Z,46.83
2018-02-21T03:33:25.591Z,49.37
2018-02-21T03:35:53.061Z,48.93
2018-02-21T03:38:20.528Z,49.07
2018-02-21T03:40:48.039Z,58.80
2018-02-21T03:43:15.508Z,50.00
2018-02-21T03:45:42.968Z,52.50
2018-02-21T03:48:10.437Z,46.50
2018-02-21T03:50:38.656Z,53.87
2018-02-21T03:53:06.895Z,49.10
2018-02-21T03:55:34.344Z,48.07
2018-02-21T03:58:01.811Z,49.90
2018-02-21T04:00:29.275Z,52.60
2018-02-21T04:02:56.734Z,52.17
2018-02-21T04:05:24.195Z,53.03
2018-02-21T04:07:51.663Z,51.70
2018-02-21T04:10:19.121Z,49.40
2018-02-21T04:12:46.589Z,53.03
2018-02-21T04:15:14.815Z,51.70
2018-02-21T04:17:42.278Z,52.23
2018-02-21T04:20:09.738Z,49.30
2018-02-21T04:22:37.204Z,57.80
2018-02-21T04:25:04.660Z,50.43
2018-02-21T04:27:32.126Z,51.87
2018-02-21T04:29:59.575Z,42.73
2018-02-21T04:32:27.045Z,41.70
2018-02-21T04:34:54.499Z,38.93
2018-02-21T04:37:21.963Z,41.13
2018-02-21T04:39:49.427Z,34.10
2018-02-21T04:42:16.896Z,31.43
2018-02-21T04:44:45.130Z,31.13
2018-02-21T04:47:12.591Z,31.33
2018-02-21T04:49:40.061Z,28.00
2018-02-21T04:52:07.521Z,25.00
2018-02-21T04:54:35.802Z,23.63
2018-02-21T04:57:09.049Z,27.33
2018-02-21T04:59:37.431Z,22.63
2018-02-21T05:02:04.886Z,28.47
2018-02-21T05:04:32.360Z,30.70
2018-02-21T05:06:59.831Z,29.57
2018-02-21T05:09:27.297Z,30.97
2018-02-21T05:11:54.762Z,25.90
2018-02-21T05:14:22.223Z,33.20
2018-02-21T05:16:49.681Z,30.30
2018-02-21T05:19:17.154Z,26.87
2018-02-21T05:21:45.371Z,26.43
2018-02-21T05:24:12.849Z,27.90
2018-02-21T05:26:40.310Z,31.40
2018-02-21T05:29:07.780Z,30.30
2018-02-21T05:31:35.264Z,36.07
2018-02-21T05:34:03.497Z,29.87
2018-02-21T05:36:30.967Z,33.43
2018-02-21T05:38:58.441Z,33.87
2018-02-21T05:41:25.952Z,30.97
2018-02-21T05:43:53.430Z,35.47
2018-02-21T05:46:20.899Z,30.77
2018-02-21T05:48:48.471Z,30.60
2018-02-21T05:51:16.718Z,42.07
2018-02-21T05:53:44.393Z,37.43
2018-02-21T05:56:11.886Z,43.73
2018-02-21T05:58:40.128Z,38.63
2018-02-21T06:01:07.603Z,43.53
2018-02-21T06:03:35.854Z,49.53
2018-02-21T06:06:03.390Z,46.33
2018-02-21T06:08:30.940Z,51.07
2018-02-21T06:10:58.402Z,43.73
2018-02-21T06:13:25.900Z,49.73
2018-02-21T06:15:53.388Z,49.80
2018-02-21T06:18:21.705Z,48.53
2018-02-21T06:20:49.184Z,44.23
2018-02-21T06:23:16.686Z,37.80
2018-02-21T06:25:44.225Z,34.80
2018-02-21T06:28:12.522Z,40.47
2018-02-21T06:30:40.181Z,39.10
2018-02-21T06:33:07.717Z,45.10
2018-02-21T06:35:35.221Z,49.43
2018-02-21T06:38:02.674Z,44.30
2018-02-21T06:40:30.149Z,48.30
2018-02-21T06:42:57.630Z,43.47
2018-02-21T06:45:25.102Z,45.00
2018-02-21T06:47:52.555Z,44.70
2018-02-21T06:50:20.034Z,42.63
2018-02-21T06:52:48.257Z,44.27
2018-02-21T06:55:15.731Z,50.40
2018-02-21T06:57:43.192Z,49.90
2018-02-21T07:00:10.796Z,48.43
2018-02-21T07:02:38.322Z,44.40
2018-02-21T07:05:05.787Z,44.23
2018-02-21T07:07:33.252Z,45.50
2018-02-21T07:10:00.717Z,43.67
2018-02-21T07:12:28.944Z,46.77
2018-02-21T07:14:56.441Z,42.53
2018-02-21T07:17:23.896Z,47.60
2018-02-21T07:19:51.376Z,45.53
2018-02-21T07:22:19.588Z,42.37
2018-02-21T07:24:47.071Z,49.00
2018-02-21T07:27:14.544Z,49.07
2018-02-21T07:29:42.104Z,50.03
2018-02-21T07:32:09.564Z,55.77
2018-02-21T07:34:37.028Z,46.87
2018-02-21T07:37:05.248Z,63.53
2018-02-21T07:39:32.716Z,46.67
2018-02-21T07:42:00.177Z,48.10
2018-02-21T07:44:27.644Z,54.97
2018-02-21T07:46:55.109Z,47.97
2018-02-21T07:49:22.584Z,51.20
2018-02-21T07:51:50.036Z,51.03
2018-02-21T07:54:17.573Z,48.50
2018-02-21T07:56:44.985Z,55.17
2018-02-21T07:59:12.453Z,48.30
2018-02-21T08:01:39.914Z,50.17
2018-02-21T08:04:07.390Z,46.07
2018-02-21T08:06:34.899Z,47.77
2018-02-21T08:09:02.316Z,49.60
2018-02-21T08:11:29.792Z,44.90
2018-02-21T08:13:57.239Z,52.00
2018-02-21T08:16:24.704Z,42.27
2018-02-21T08:18:52.166Z,44.30
2018-02-21T08:21:19.631Z,45.47
2018-02-21T08:23:47.083Z,43.63
2018-02-21T08:26:14.547Z,40.73
2018-02-21T08:28:42.009Z,34.20
2018-02-21T08:31:10.234Z,35.97
2018-02-21T08:33:37.700Z,38.47
2018-02-21T08:36:05.167Z,39.37
2018-02-21T08:38:32.630Z,38.10
2018-02-21T08:41:00.101Z,33.00
2018-02-21T08:43:27.553Z,31.00
2018-02-21T08:45:55.019Z,26.60
2018-02-21T08:48:22.477Z,27.83
2018-02-21T08:50:49.949Z,32.20
2018-02-21T08:53:18.171Z,30.30
2018-02-21T08:55:45.637Z,28.47
2018-02-21T08:58:13.108Z,33.57
2018-02-21T09:00:40.566Z,31.23
2018-02-21T09:05:42.844Z,29.70
2018-02-21T09:08:10.303Z,25.97
2018-02-21T09:10:37.776Z,25.07
2018-02-21T09:13:06.292Z,26.00
2018-02-21T09:15:33.771Z,27.33
2018-02-21T09:18:01.226Z,31.90
2018-02-21T09:20:28.692Z,25.30
2018-02-21T09:22:56.166Z,24.73
2018-02-21T09:25:23.637Z,24.50
2018-02-21T09:27:51.092Z,24.43
2018-02-21T09:30:18.573Z,22.23
2018-02-21T09:32:46.037Z,26.67
2018-02-21T09:35:13.510Z,26.03
2018-02-21T09:37:41.746Z,27.30
2018-02-21T09:40:09.248Z,23.90
2018-02-21T09:42:37.469Z,28.13
2018-02-21T09:45:04.986Z,28.33
2018-02-21T09:47:32.470Z,29.63
2018-02-21T09:49:59.943Z,29.60
2018-02-21T09:52:27.437Z,34.80
2018-02-21T09:54:55.730Z,29.23
2018-02-21T09:57:23.255Z,29.00
2018-02-21T09:59:50.755Z,31.73
2018-02-21T10:02:18.288Z,29.30
2018-02-21T10:04:46.571Z,29.90
2018-02-21T10:07:14.862Z,32.50
2018-02-21T10:09:42.414Z,30.00
2018-02-21T10:12:10.729Z,30.40
2018-02-21T10:14:38.268Z,29.67
2018-02-21T10:17:05.786Z,28.07
2018-02-21T10:19:33.315Z,30.77
2018-02-21T10:22:00.849Z,28.47
2018-02-21T10:24:28.366Z,30.23
2018-02-21T10:26:55.901Z,29.60
2018-02-21T10:29:23.413Z,33.33
2018-02-21T10:31:50.948Z,30.73
2018-02-21T10:34:19.261Z,28.77
2018-02-21T10:36:46.777Z,29.80
2018-02-21T10:39:14.277Z,28.77
2018-02-21T10:41:41.821Z,33.93
2018-02-21T10:44:09.328Z,27.53
2018-02-21T10:46:37.622Z,28.13
2018-02-21T10:49:05.139Z,29.57
2018-02-21T10:51:32.655Z,31.47
2018-02-21T10:54:00.177Z,31.87
2018-02-21T10:56:27.686Z,30.00
2018-02-21T10:58:55.950Z,31.90
2018-02-21T11:01:25.838Z,29.07
2018-02-21T11:03:53.316Z,29.13
2018-02-21T11:06:20.814Z,26.67
2018-02-21T11:08:48.298Z,30.03
2018-02-21T11:11:15.814Z,31.30
2018-02-21T11:13:44.051Z,31.30
2018-02-21T11:16:11.534Z,33.37
2018-02-21T11:18:39.776Z,33.83
2018-02-21T11:21:07.256Z,29.60
2018-02-21T11:23:34.804Z,29.00
2018-02-21T11:26:02.223Z,35.60
2018-02-21T11:28:29.698Z,34.30
2018-02-21T11:30:57.176Z,31.43
2018-02-21T11:33:24.660Z,29.13
2018-02-21T11:35:52.909Z,36.13
2018-02-21T11:38:20.401Z,30.07
2018-02-21T11:40:48.646Z,32.10
2018-02-21T11:43:16.121Z,29.80
2018-02-21T11:45:43.589Z,26.90
2018-02-21T11:48:11.825Z,28.20
2018-02-21T11:50:39.317Z,28.03
2018-02-21T11:53:07.615Z,28.57
2018-02-21T11:55:35.057Z,31.10
2018-02-21T11:58:02.555Z,27.97
2018-02-21T12:00:30.042Z,25.93
2018-02-21T12:02:57.522Z,30.50
2018-02-21T12:05:25.764Z,27.63
2018-02-21T12:07:53.246Z,29.60
2018-02-21T12:10:20.733Z,30.33
2018-02-21T12:12:48.968Z,28.40
2018-02-21T12:15:16.449Z,30.23
2018-02-21T12:17:44.702Z,28.67
2018-02-21T12:20:12.175Z,30.40
2018-02-21T12:22:39.661Z,34.03
2018-02-21T12:25:07.139Z,31.00
2018-02-21T12:27:34.618Z,36.70
2018-02-21T12:30:02.100Z,32.57
2018-02-21T12:35:26.249Z,37.07
2018-02-21T12:37:53.719Z,34.77
2018-02-21T12:40:26.991Z,34.67
2018-02-21T12:42:54.461Z,32.87
2018-02-21T12:45:21.929Z,35.50
2018-02-21T12:47:49.396Z,33.93
2018-02-21T12:50:16.885Z,33.07
2018-02-21T12:52:44.343Z,37.67
2018-02-21T12:55:11.803Z,36.33
2018-02-21T12:57:40.042Z,33.87
2018-02-21T13:00:07.537Z,30.47
2018-02-21T13:02:34.973Z,35.43
2018-02-21T13:05:02.454Z,40.43
2018-02-21T13:07:30.694Z,37.57
2018-02-21T13:09:58.157Z,35.17
2018-02-21T13:12:25.626Z,35.80
2018-02-21T13:14:53.101Z,38.30
2018-02-21T13:17:21.333Z,35.33
2018-02-21T13:19:48.790Z,32.60
2018-02-21T13:22:16.259Z,32.37
2018-02-21T13:24:43.716Z,32.77
2018-02-21T13:27:11.180Z,30.13
2018-02-21T13:29:38.659Z,31.53
2018-02-21T13:32:06.123Z,30.37
2018-02-21T13:34:34.355Z,35.80
2018-02-21T13:37:01.830Z,31.77
2018-02-21T13:39:29.296Z,43.90
2018-02-21T13:41:56.754Z,41.57
2018-02-21T13:44:24.231Z,37.23
2018-02-21T13:46:52.458Z,46.20
2018-02-21T13:49:19.929Z,42.17
2018-02-21T13:51:47.388Z,42.23
2018-02-21T13:54:14.849Z,46.23
2018-02-21T13:56:42.325Z,46.13
2018-02-21T13:59:09.788Z,40.63
2018-02-21T14:01:37.251Z,40.00
2018-02-21T14:04:05.488Z,39.03
2018-02-21T14:06:32.956Z,46.10
2018-02-21T14:09:00.426Z,46.53
2018-02-21T14:11:27.900Z,44.97
2018-02-21T14:13:56.147Z,44.43
2018-02-21T14:16:23.601Z,37.93
2018-02-21T14:18:51.067Z,48.10
2018-02-21T14:21:18.520Z,44.73
2018-02-21T14:23:46.057Z,45.00
2018-02-21T14:26:13.527Z,45.53
2018-02-21T14:28:41.005Z,41.23
2018-02-21T14:31:08.478Z,51.23
2018-02-21T14:33:36.720Z,50.80
2018-02-21T14:36:04.204Z,46.27
2018-02-21T14:38:31.673Z,48.90
2018-02-21T14:40:59.908Z,45.50
2018-02-21T14:43:27.398Z,46.43
2018-02-21T14:45:54.876Z,47.80
2018-02-21T14:48:22.373Z,49.20
2018-02-21T14:50:49.851Z,50.97
2018-02-21T14:53:17.333Z,52.80
2018-02-21T14:55:45.593Z,56.40
2018-02-21T14:58:13.085Z,47.23
2018-02-21T15:00:41.473Z,58.43
2018-02-21T15:03:08.953Z,50.30
2018-02-21T15:05:36.446Z,56.43
2018-02-21T15:08:04.224Z,57.30
2018-02-21T15:10:32.525Z,53.13
2018-02-21T15:13:00.077Z,48.77
2018-02-21T15:15:28.563Z,54.23
2018-02-21T15:17:56.130Z,49.83
2018-02-21T15:20:23.668Z,54.57
2018-02-21T15:22:52.002Z,53.43
2018-02-21T15:25:19.524Z,57.60
2018-02-21T15:27:47.133Z,52.90
2018-02-21T15:30:14.930Z,51.23
2018-02-21T15:32:42.602Z,52.47
2018-02-21T15:35:10.905Z,57.23
2018-02-21T15:37:38.449Z,53.40
2018-02-21T15:40:06.012Z,49.90
2018-02-21T15:42:33.573Z,56.63
2018-02-21T15:45:01.117Z,50.60
2018-02-21T15:47:28.779Z,53.13
2018-02-21T15:49:56.549Z,51.27
2018-02-21T15:52:24.098Z,55.00
2018-02-21T15:54:52.432Z,55.63
2018-02-21T15:57:19.951Z,55.97
2018-02-21T15:59:47.530Z,60.70
2018-02-21T16:02:15.066Z,57.73
2018-02-21T16:04:42.601Z,59.73
2018-02-21T16:07:10.922Z,63.03
2018-02-21T16:09:38.549Z,56.20
2018-02-21T16:12:06.867Z,54.87
2018-02-21T16:14:34.388Z,61.90
2018-02-21T16:17:01.916Z,56.47
2018-02-21T16:19:29.507Z,51.53
2018-02-21T16:21:57.054Z,57.07
2018-02-21T16:24:43.755Z,60.17
2018-02-21T16:27:12.097Z,52.90
2018-02-21T16:29:39.625Z,56.37
2018-02-21T16:32:07.221Z,57.83
2018-02-21T16:34:34.741Z,53.03
2018-02-21T16:37:02.330Z,55.50
2018-02-21T16:39:30.696Z,51.93
2018-02-21T16:41:58.207Z,47.57
2018-02-21T16:44:25.737Z,55.03
2018-02-21T16:46:53.324Z,49.10
2018-02-21T16:49:20.853Z,57.60
2018-02-21T16:51:48.411Z,54.20
2018-02-21T16:54:16.894Z,53.47
2018-02-21T16:56:44.480Z,56.40
2018-02-21T16:59:12.050Z,53.03
2018-02-21T17:01:39.545Z,58.40
2018-02-21T17:04:07.170Z,55.40
2018-02-21T17:06:34.693Z,57.13
2018-02-21T17:09:02.233Z,62.50
2018-02-21T17:11:29.754Z,60.97
2018-02-21T17:13:58.077Z,63.50
2018-02-21T17:18:59.533Z,64.50
2018-02-21T17:21:27.104Z,63.40
2018-02-21T17:23:54.633Z,69.10
2018-02-21T17:26:44.979Z,65.37
2018-02-21T17:29:15.618Z,72.80
2018-02-21T17:31:48.676Z,62.00
2018-02-21T17:34:31.653Z,62.57
2018-02-21T17:37:01.873Z,64.40
2018-02-21T17:39:41.315Z,71.17
2018-02-21T17:42:45.962Z,63.67
2018-02-21T17:48:21.535Z,73.40
2018-02-21T17:50:56.691Z,65.13
2018-02-21T17:53:31.848Z,68.00
2018-02-21T17:55:59.651Z,60.80
2018-02-21T17:58:27.206Z,80.40
2018-02-21T18:00:54.765Z,75.37
2018-02-21T18:03:22.297Z,62.03
2018-02-21T18:05:49.873Z,60.13
2018-02-21T18:08:17.424Z,65.60
2018-02-21T18:10:45.126Z,62.07
2018-02-21T18:13:12.776Z,71.27
2018-02-21T18:15:40.650Z,61.90
2018-02-21T18:18:08.311Z,73.70
2018-02-21T18:20:35.919Z,66.70
2018-02-21T18:23:03.535Z,77.63
2018-02-21T18:25:31.079Z,65.23
2018-02-21T18:27:59.376Z,78.93
2018-02-21T18:30:26.941Z,85.10
2018-02-21T18:32:54.464Z,80.87
2018-02-21T18:35:22.046Z,75.40
2018-02-21T18:37:49.565Z,75.17
2018-02-21T18:40:17.096Z,71.40
2018-02-21T18:42:45.440Z,69.20
2018-02-21T18:45:12.957Z,70.93
2018-02-21T18:47:40.484Z,80.33
2018-02-21T18:50:08.008Z,76.53
2018-02-21T18:52:35.576Z,79.17
2018-02-21T18:57:37.106Z,78.70
2018-02-21T19:00:04.644Z,84.47
2018-02-21T19:02:32.885Z,76.23
2018-02-21T19:05:00.530Z,81.33
2018-02-21T19:07:28.047Z,76.13
2018-02-21T19:09:56.353Z,78.90
2018-02-21T19:12:23.899Z,86.50
2018-02-21T19:14:51.406Z,89.03
2018-02-21T19:17:18.930Z,79.67
2018-02-21T19:19:46.427Z,92.53
2018-02-21T19:22:13.979Z,78.83
2018-02-21T19:24:41.518Z,81.07
2018-02-21T19:27:09.041Z,72.50
2018-02-21T19:29:36.558Z,78.33
2018-02-21T19:32:04.142Z,81.73
2018-02-21T19:34:32.420Z,82.70
2018-02-21T19:37:00.716Z,70.63
2018-02-21T19:39:28.280Z,77.73
2018-02-21T19:41:55.816Z,85.50
2018-02-21T19:44:24.139Z,81.73
2018-02-21T19:46:51.750Z,77.60
2018-02-21T19:49:19.324Z,79.73
2018-02-21T19:51:47.620Z,78.80
2018-02-21T19:54:15.201Z,76.47
2018-02-21T19:56:42.767Z,83.03
2018-02-21T19:59:10.270Z,80.30
2018-02-21T20:01:38.606Z,74.77
2018-02-21T20:04:06.176Z,82.03
2018-02-21T20:06:33.752Z,71.17
2018-02-21T20:09:01.320Z,89.27
2018-02-21T20:11:29.008Z,63.17
2018-02-21T20:13:56.530Z,70.07
2018-02-21T20:16:24.084Z,80.03
2018-02-21T20:18:51.642Z,71.00
2018-02-21T20:21:19.189Z,75.50
2018-02-21T20:23:46.756Z,69.13
2018-02-21T20:26:14.332Z,75.90
2018-02-21T20:28:41.890Z,70.37
2018-02-21T20:31:09.482Z,75.50
2018-02-21T20:33:37.782Z,88.07
2018-02-21T20:36:05.370Z,85.03
2018-02-21T20:38:32.932Z,76.20
2018-02-21T20:41:00.486Z,87.03
2018-02-21T20:43:28.043Z,81.87
2018-02-21T20:45:55.548Z,80.83
2018-02-21T20:48:23.217Z,78.47
2018-02-21T20:50:50.896Z,71.70
2018-02-21T20:53:18.596Z,77.73
2018-02-21T20:55:46.413Z,88.73
2018-02-21T20:58:14.748Z,77.93
2018-02-21T21:00:42.347Z,90.17
2018-02-21T21:03:09.938Z,80.13
2018-02-21T21:05:37.482Z,79.70
2018-02-21T21:08:05.029Z,73.87
2018-02-21T21:10:33.344Z,71.93
2018-02-21T21:13:00.900Z,85.23
2018-02-21T21:15:28.469Z,74.80
2018-02-21T21:17:56.055Z,79.30
2018-02-21T21:20:23.629Z,77.33
2018-02-21T21:22:51.968Z,83.33
2018-02-21T21:25:19.547Z,86.03
2018-02-21T21:27:47.108Z,84.77
2018-02-21T21:30:14.690Z,71.43
2018-02-21T21:32:43.013Z,71.77
2018-02-21T21:35:10.536Z,76.00
2018-02-21T21:37:38.835Z,74.10
2018-02-21T21:40:06.426Z,76.00
2018-02-21T21:42:34.004Z,71.67
2018-02-21T21:45:01.587Z,79.47
2018-02-21T21:47:29.896Z,75.83
2018-02-21T21:49:57.453Z,71.33
2018-02-21T21:52:25.021Z,71.63
2018-02-21T21:54:52.566Z,73.83
2018-02-21T21:57:20.152Z,73.30
2018-02-21T21:59:47.708Z,70.20
2018-02-21T22:02:15.285Z,68.03
2018-02-21T22:04:42.869Z,69.27
2018-02-21T22:07:10.446Z,62.20
2018-02-21T22:09:38.784Z,81.00
2018-02-21T22:12:06.363Z,65.13
2018-02-21T22:14:33.931Z,67.77
2018-02-21T22:17:01.470Z,73.73
2018-02-21T22:19:29.038Z,70.47
2018-02-21T22:21:56.595Z,64.30
2018-02-21T22:24:24.142Z,69.10
2018-02-21T22:26:51.704Z,69.80
2018-02-21T22:29:19.300Z,70.20
2018-02-21T22:31:47.628Z,64.80
2018-02-21T22:34:15.194Z,81.43
2018-02-21T22:36:42.745Z,68.50
2018-02-21T22:39:11.087Z,67.40
2018-02-21T22:41:38.645Z,73.13
2018-02-21T22:44:06.176Z,77.17
2018-02-21T22:46:33.736Z,67.13
2018-02-21T22:49:01.279Z,68.97
2018-02-21T22:51:28.864Z,71.60
2018-02-21T22:53:56.402Z,65.20
2018-02-21T22:56:23.948Z,69.10
2018-02-21T22:58:51.513Z,63.30
2018-02-21T23:01:19.043Z,81.47
2018-02-21T23:03:46.622Z,69.37
2018-02-21T23:06:14.178Z,60.23
2018-02-21T23:08:41.750Z,70.13
2018-02-21T23:11:09.311Z,69.33
2018-02-21T23:13:36.905Z,65.10
2018-02-21T23:16:05.216Z,62.47
2018-02-21T23:18:32.790Z,71.10
2018-02-21T23:21:00.361Z,55.60
2018-02-21T23:23:27.895Z,57.37
2018-02-21T23:25:55.456Z,69.87
2018-02-21T23:28:23.012Z,62.87
2018-02-21T23:30:50.557Z,57.33
2018-02-21T23:33:18.150Z,54.60
2018-02-21T23:35:45.683Z,67.63
2018-02-21T23:38:13.238Z,62.90
2018-02-21T23:40:41.599Z,62.87
2018-02-21T23:43:09.122Z,61.10
2018-02-21T23:45:36.701Z,60.03
2018-02-21T23:48:04.238Z,61.07
2018-02-21T23:50:31.801Z,58.17
2018-02-21T23:52:59.347Z,58.67
2018-02-21T23:55:26.914Z,57.17
2018-02-21T23:57:54.480Z,60.50
